Sterling City, Texas
Current Conditions -  °F | °C
As of 11:15 PM on Monday 22 Dec 2014 (Local Time) from KBPG Reporting Station
Overcast Overcast  
Wind Chill: 51°   Ceiling: 4900
Heat Index: 51°   Visibility: 10mi
Dew Point: 33°   Wind: 22mph
Humidity: 50%   Direction: 330°NNW
Pressure: 29.82"   Gusts: 36mph
Location:  31.84°N, 100.98°W
Report Text: KBPG 230515Z AUTO 33019G31KT 10SM BKN049 BKN060 OVC085 11/00 A2982 RMK AO2 T01060004
Loading
Personal Weather Stations






























Interactive Weather Map New forecast layout! Learn more

10-Day Weather Forecast

Advertisements
Track Severe Weather on mobile